Time;durP1;ratioP1;P1;durP2;ratioP2;P2;SDS_P1;SDS_P2;PMS_P1;PMS_P2;Temp;Humidity;BMP_temperature;BMP_pressure;BME280_temperature;BME280_humidity;BME280_pressure;Samples;Min_cycle;Max_cycle;Signal;HPM_P1;HPM_P2
2022/12/15 00:39:03;;;;;;;0.00;0.00;;;;;;;-0.11;67.81;100749.16;7358605;19;20053;-57
2022/12/15 00:41:29;;;;;;;0.10;0.10;;;;;;;0.11;67.83;100787.31;7355736;19;20011;-57
2022/12/15 00:43:54;;;;;;;0.10;0.10;;;;;;;0.09;67.98;100788.97;7357536;19;20017;-56
2022/12/15 00:50:50;;;;;;;0.10;0.10;;;;;;;0.15;67.75;100799.41;7355809;19;20021;-58
2022/12/15 01:21:56;;;;;;;0.10;0.10;;;;;;;0.12;68.26;100794.19;7355366;19;20371;-55
2022/12/15 01:24:22;;;;;;;0.00;0.00;;;;;;;0.07;68.23;100788.09;7357913;19;20007;-57
2022/12/15 01:26:47;;;;;;;0.08;0.08;;;;;;;0.11;68.47;100795.03;7354270;19;20027;-57
2022/12/15 01:29:12;;;;;;;0.08;0.08;;;;;;;0.05;68.31;100792.34;7357143;19;20006;-58
2022/12/15 01:31:38;;;;;;;0.10;0.10;;;;;;;0.09;68.44;100799.22;7354653;19;20011;-57
2022/12/15 01:34:03;;;;;;;0.10;0.10;;;;;;;-0.01;68.54;100777.63;7357897;19;20014;-58
2022/12/15 01:36:29;;;;;;;0.10;0.10;;;;;;;0.09;68.26;100795.81;7354716;19;20023;-57
2022/12/15 01:38:54;;;;;;;0.03;0.03;;;;;;;-0.13;68.50;100753.41;7355767;19;20010;-57
2022/12/15 01:41:20;;;;;;;0.10;0.10;;;;;;;0.06;68.54;100788.06;7362497;19;20006;-57
2022/12/15 01:43:46;;;;;;;0.10;0.10;;;;;;;0.07;68.96;100792.34;7365478;19;20030;-58
2022/12/15 01:46:16;;;;;;;0.05;0.05;;;;;;;-0.05;68.51;100772.41;7362838;19;20019;-57
2022/12/15 01:48:50;;;;;;;0.00;0.00;;;;;;;0.07;68.37;100793.22;7362913;19;20018;-56
2022/12/15 01:51:25;;;;;;;0.00;0.00;;;;;;;0.07;68.06;100789.78;7358482;19;20018;-57
2022/12/15 01:54:04;;;;;;;0.10;0.10;;;;;;;0.02;68.14;100781.97;7363752;19;20017;-58
2022/12/15 01:56:34;;;;;;;0.05;0.05;;;;;;;0.05;68.23;100791.44;7363367;19;20025;-58
2022/12/15 01:59:01;;;;;;;0.03;0.03;;;;;;;0.03;68.24;100796.53;7361515;19;20007;-58
2022/12/15 02:01:27;;;;;;;0.00;0.00;;;;;;;-0.08;68.27;100780.06;7363889;19;20736;-56
2022/12/15 02:03:53;;;;;;;0.10;0.10;;;;;;;-0.06;68.65;100788.63;7362708;19;20038;-57
2022/12/15 02:06:23;;;;;;;0.10;0.10;;;;;;;-0.02;68.34;100790.44;7361317;19;20038;-56
2022/12/15 02:08:51;;;;;;;0.00;0.00;;;;;;;-0.01;68.35;100793.03;7355987;19;20029;-57
2022/12/15 02:11:35;;;;;;;0.00;0.00;;;;;;;0.01;68.07;100789.66;7363211;19;20014;-57
2022/12/15 02:14:08;;;;;;;0.00;0.00;;;;;;;-0.02;68.17;100800.72;7361817;19;20010;-57
2022/12/15 02:17:02;;;;;;;0.10;0.10;;;;;;;-0.03;68.19;100793.84;7360954;19;20022;-56
2022/12/15 02:20:07;;;;;;;0.10;0.10;;;;;;;-0.03;68.08;100804.13;7262567;19;2004309;-58
2022/12/15 02:22:32;;;;;;;0.10;0.10;;;;;;;-0.06;67.89;100804.03;7261868;19;2004463;-56
2022/12/15 02:25:24;;;;;;;0.10;0.10;;;;;;;-0.06;68.22;100804.03;7361209;19;20014;-56
2022/12/15 02:28:11;;;;;;;0.10;0.10;;;;;;;-0.08;68.38;100821.13;7262981;19;2004275;-57
2022/12/15 02:34:16;;;;;;;0.00;0.00;;;;;;;-0.21;68.33;100798.56;7162897;19;2004376;-58
2022/12/15 02:36:46;;;;;;;0.10;0.10;;;;;;;-0.20;68.09;100800.28;7363666;19;20062;-57
2022/12/15 02:39:12;;;;;;;0.10;0.10;;;;;;;-0.26;68.18;100799.31;7364458;19;20751;-58
2022/12/15 02:41:43;;;;;;;0.10;0.10;;;;;;;-0.19;68.45;100804.63;7365766;19;20015;-57
2022/12/15 02:44:14;;;;;;;0.10;0.10;;;;;;;-0.18;68.73;100809.78;7363282;19;20052;-56
2022/12/15 02:47:17;;;;;;;0.00;0.00;;;;;;;-0.16;68.39;100807.22;7363803;19;20023;-58
2022/12/15 02:49:58;;;;;;;0.00;0.00;;;;;;;-0.18;68.45;100803.78;7263512;19;2004214;-58
2022/12/15 02:52:32;;;;;;;0.08;0.08;;;;;;;-0.20;68.59;100802.84;7361064;19;20010;-58
2022/12/15 02:55:19;;;;;;;0.10;0.10;;;;;;;-0.20;68.79;100806.31;7364358;19;20069;-58
2022/12/15 02:57:59;;;;;;;0.10;0.10;;;;;;;-0.20;68.60;100808.00;7352335;19;20013;-58
2022/12/15 03:00:24;;;;;;;0.10;0.10;;;;;;;-0.21;68.50;100808.84;7360620;19;20007;-57
2022/12/15 03:02:53;;;;;;;0.10;0.10;;;;;;;-0.29;68.62;100796.72;7362525;19;20021;-57
2022/12/15 03:05:20;;;;;;;0.00;0.00;;;;;;;-0.23;68.83;100807.94;7361034;19;21285;-56
2022/12/15 03:07:49;;;;;;;0.05;0.05;;;;;;;-0.29;68.70;100801.84;7362085;19;20032;-57
2022/12/15 03:10:15;;;;;;;0.00;0.00;;;;;;;-0.24;68.58;100807.06;7362454;19;20033;-58
2022/12/15 03:12:41;;;;;;;0.00;0.00;;;;;;;-0.27;68.88;100800.16;7361823;19;20050;-57
2022/12/15 03:15:07;;;;;;;0.00;0.00;;;;;;;-0.23;68.64;100810.50;7359633;19;20007;-57
2022/12/15 03:17:32;;;;;;;0.00;0.00;;;;;;;-0.35;68.98;100796.56;7362749;19;20046;-57
2022/12/15 03:19:58;;;;;;;0.10;0.10;;;;;;;-0.31;68.87;100805.19;7359751;19;20017;-58
2022/12/15 03:22:23;;;;;;;0.10;0.10;;;;;;;-0.27;68.85;100810.44;7362616;19;20581;-57
2022/12/15 03:24:48;;;;;;;0.00;0.00;;;;;;;-0.25;68.76;100813.06;7363908;19;20011;-58
2022/12/15 03:27:14;;;;;;;0.10;0.10;;;;;;;-0.35;69.05;100796.56;7364325;19;20613;-58
2022/12/15 03:29:39;;;;;;;0.00;0.00;;;;;;;-0.28;69.03;100807.84;7360232;19;20029;-58
2022/12/15 03:32:05;;;;;;;0.10;0.10;;;;;;;-0.27;69.19;100800.16;7360558;19;20094;-56
2022/12/15 03:34:31;;;;;;;0.10;0.10;;;;;;;-0.30;69.10;100804.38;7362193;19;20010;-57
2022/12/15 03:36:56;;;;;;;0.10;0.10;;;;;;;-0.42;69.12;100779.28;7362017;19;20010;-57
2022/12/15 03:39:22;;;;;;;0.10;0.10;;;;;;;-0.42;69.37;100781.84;7362649;19;20014;-58
2022/12/15 03:41:47;;;;;;;0.08;0.08;;;;;;;-0.27;68.96;100807.84;7362790;19;20086;-57
2022/12/15 03:44:12;;;;;;;0.00;0.00;;;;;;;-0.48;68.90;100775.72;7359314;19;20034;-58
2022/12/15 03:46:38;;;;;;;0.10;0.10;;;;;;;-0.37;69.32;100799.91;7353279;19;20033;-58
2022/12/15 03:49:03;;;;;;;0.10;0.10;;;;;;;-0.35;69.18;100799.13;7361157;19;20006;-57
2022/12/15 03:51:29;;;;;;;0.10;0.10;;;;;;;-0.34;69.29;100794.88;7358956;19;20014;-56
2022/12/15 03:53:54;;;;;;;0.05;0.05;;;;;;;-0.32;69.37;100798.31;7362695;19;20023;-57
2022/12/15 03:56:20;;;;;;;0.10;0.10;;;;;;;-0.33;69.43;100810.28;7356159;19;20010;-57
2022/12/15 03:58:45;;;;;;;0.03;0.03;;;;;;;-0.40;69.48;100792.16;7360968;19;20006;-58
2022/12/15 04:01:21;;;;;;;0.10;0.10;;;;;;;-0.35;69.08;100806.84;7353192;19;20022;-58
2022/12/15 04:03:47;;;;;;;0.10;0.10;;;;;;;-0.40;69.28;100795.59;7340763;19;20882;-58
2022/12/15 04:06:12;;;;;;;0.10;0.10;;;;;;;-0.53;69.24;100776.47;7360352;19;20012;-57
2022/12/15 04:08:38;;;;;;;0.10;0.10;;;;;;;-0.54;68.96;100771.31;7358313;19;20318;-58
2022/12/15 04:11:03;;;;;;;0.10;0.10;;;;;;;-0.40;69.14;100803.28;7363154;19;20025;-57
2022/12/15 04:13:28;;;;;;;0.10;0.10;;;;;;;-0.41;69.20;100811.78;7359878;19;20469;-57
2022/12/15 04:15:54;;;;;;;0.00;0.00;;;;;;;-0.44;69.12;100800.63;7360141;19;20093;-58
2022/12/15 04:18:21;;;;;;;0.10;0.10;;;;;;;-0.51;68.96;100794.47;7352596;19;20052;-58
2022/12/15 04:20:46;;;;;;;0.10;0.10;;;;;;;-0.45;69.05;100807.44;7354082;19;20098;-56
2022/12/15 04:23:12;;;;;;;0.10;0.10;;;;;;;-0.48;69.40;100799.66;7360111;19;20003;-58
2022/12/15 05:31:50;;;;;;;0.00;0.00;;;;;;;-0.68;69.72;100803.47;7366883;19;20101;-57
2022/12/15 05:34:19;;;;;;;0.00;0.00;;;;;;;-0.75;69.80;100793.91;7365507;19;20487;-58
2022/12/15 05:36:45;;;;;;;0.10;0.10;;;;;;;-0.68;69.94;100801.75;7365416;19;20006;-58
2022/12/15 05:39:10;;;;;;;0.10;0.10;;;;;;;-0.72;69.65;100799.06;7366985;19;20022;-56
2022/12/15 05:41:36;;;;;;;0.10;0.10;;;;;;;-0.74;69.66;100800.75;7365997;19;20011;-58
2022/12/15 05:44:01;;;;;;;0.00;0.00;;;;;;;-0.66;69.64;100814.59;7363381;19;20350;-56
2022/12/15 05:46:27;;;;;;;0.10;0.10;;;;;;;-0.73;69.40;100803.34;7363776;19;20014;-58
2022/12/15 05:48:52;;;;;;;0.00;0.00;;;;;;;-0.75;69.88;100799.03;7364258;19;20013;-57
2022/12/15 05:51:18;;;;;;;0.10;0.10;;;;;;;-0.76;69.83;100792.13;7365283;19;20024;-58
2022/12/15 05:53:43;;;;;;;0.10;0.10;;;;;;;-0.71;69.51;100798.25;7362291;19;20006;-58
2022/12/15 05:56:11;;;;;;;0.00;0.00;;;;;;;-0.66;69.44;100809.47;7366189;19;20490;-58
2022/12/15 05:58:38;;;;;;;0.08;0.08;;;;;;;-0.67;69.55;100810.31;7362216;19;20010;-58
2022/12/15 06:01:07;;;;;;;0.10;0.10;;;;;;;-0.67;69.77;100807.75;7365557;19;20013;-56
2022/12/15 06:03:33;;;;;;;0.00;0.00;;;;;;;-0.70;69.98;100807.69;7364465;19;20010;-57
2022/12/15 06:05:59;;;;;;;0.00;0.00;;;;;;;-0.69;69.72;100809.44;7366263;19;20030;-57
2022/12/15 06:08:29;;;;;;;0.10;0.10;;;;;;;-0.69;69.94;100812.00;7363734;19;20067;-58
2022/12/15 06:10:54;;;;;;;0.00;0.00;;;;;;;-0.68;69.47;100813.72;7364149;19;20565;-57
2022/12/15 06:13:21;;;;;;;0.00;0.00;;;;;;;-0.72;69.53;100812.75;7365035;19;20018;-57
2022/12/15 06:15:55;;;;;;;0.03;0.03;;;;;;;-0.75;69.75;100809.28;7364018;19;20446;-58
2022/12/15 06:18:20;;;;;;;0.00;0.00;;;;;;;-1.06;69.80;100765.78;7363842;19;20577;-57
2022/12/15 06:20:45;;;;;;;0.00;0.00;;;;;;;-0.72;69.97;100822.16;7362715;19;20110;-58
2022/12/15 06:23:11;;;;;;;0.10;0.10;;;;;;;-0.76;69.68;100813.53;7363654;19;20006;-58
2022/12/15 06:25:36;;;;;;;0.00;0.00;;;;;;;-0.77;69.84;100810.91;7362727;19;20077;-57
2022/12/15 06:28:02;;;;;;;0.10;0.10;;;;;;;-0.81;69.77;100808.31;7362310;19;20006;-58
2022/12/15 06:30:27;;;;;;;0.10;0.10;;;;;;;-0.81;70.10;100815.13;7365564;19;20823;-58
2022/12/15 06:32:53;;;;;;;0.10;0.10;;;;;;;-0.84;69.97;100804.78;7362062;19;20018;-58
2022/12/15 06:35:20;;;;;;;0.10;0.10;;;;;;;-0.82;70.12;100809.09;7365223;19;20403;-58
2022/12/15 06:37:45;;;;;;;0.10;0.10;;;;;;;-0.92;69.95;100796.88;7364645;19;20495;-57
2022/12/15 06:40:11;;;;;;;0.05;0.05;;;;;;;-0.81;70.08;100812.56;7364039;19;20018;-58
2022/12/15 06:42:36;;;;;;;0.00;0.00;;;;;;;-0.79;69.84;100819.44;7365067;19;20039;-56
2022/12/15 06:45:02;;;;;;;0.00;0.00;;;;;;;-0.80;69.64;100827.97;7361741;19;20011;-56
2022/12/15 06:47:28;;;;;;;0.10;0.10;;;;;;;-0.85;69.97;100814.16;7362844;19;20010;-57
2022/12/15 06:49:54;;;;;;;0.10;0.10;;;;;;;-0.80;69.95;100817.72;7365972;19;20034;-58
2022/12/15 06:52:20;;;;;;;0.10;0.10;;;;;;;-0.80;70.20;100815.16;7363184;19;20038;-57
2022/12/15 06:54:45;;;;;;;0.00;0.00;;;;;;;-0.77;70.11;100822.03;7363905;19;21060;-57
2022/12/15 06:57:10;;;;;;;0.03;0.03;;;;;;;-0.81;70.34;100823.69;7360807;19;21898;-57
2022/12/15 06:59:36;;;;;;;0.10;0.10;;;;;;;-0.79;70.07;100819.44;7354400;19;20030;-57
2022/12/15 07:02:01;;;;;;;0.00;0.00;;;;;;;-0.90;69.84;100797.81;7358168;19;20018;-57
2022/12/15 07:04:26;;;;;;;0.00;0.00;;;;;;;-0.81;69.85;100818.56;7362620;19;20358;-58
2022/12/15 07:06:52;;;;;;;0.10;0.10;;;;;;;-0.82;69.94;100824.47;7361860;19;20003;-58
2022/12/15 07:09:17;;;;;;;0.03;0.03;;;;;;;-0.89;69.94;100807.22;7359318;19;20010;-58
2022/12/15 07:11:45;;;;;;;0.10;0.10;;;;;;;-0.85;70.29;100819.28;7362996;19;20683;-58
2022/12/15 07:14:10;;;;;;;0.10;0.10;;;;;;;-0.84;69.85;100821.03;7361791;19;20019;-58
2022/12/15 07:16:36;;;;;;;0.10;0.10;;;;;;;-0.81;69.90;100826.25;7360288;19;20362;-58
2022/12/15 07:19:01;;;;;;;0.10;0.10;;;;;;;-1.24;69.96;100751.66;7362350;19;20010;-58
2022/12/15 07:21:26;;;;;;;0.00;0.00;;;;;;;-0.96;70.07;100799.31;7356057;19;20053;-58
2022/12/15 07:23:52;;;;;;;0.10;0.10;;;;;;;-0.96;70.08;100800.22;7363201;19;20014;-57
2022/12/15 07:26:17;;;;;;;0.10;0.10;;;;;;;-0.97;69.95;100802.72;7356983;19;20038;-58
2022/12/15 07:28:43;;;;;;;0.10;0.10;;;;;;;-0.87;69.95;100826.06;7360697;19;20040;-58
2022/12/15 07:31:10;;;;;;;0.10;0.10;;;;;;;-1.02;70.17;100800.03;7358980;19;20018;-56
2022/12/15 07:33:36;;;;;;;0.10;0.10;;;;;;;-0.90;70.03;100826.00;7356659;19;20002;-58
2022/12/15 07:36:03;;;;;;;0.00;0.00;;;;;;;-0.93;70.40;100820.78;7357518;19;20021;-58
2022/12/15 07:38:29;;;;;;;0.00;0.00;;;;;;;-0.98;69.84;100824.94;7356658;19;20022;-58
2022/12/15 07:40:59;;;;;;;0.10;0.10;;;;;;;-0.90;69.90;100845.66;7359051;19;20014;-57
2022/12/15 07:43:24;;;;;;;0.10;0.10;;;;;;;-0.97;69.95;100839.47;7354280;19;20002;-58
2022/12/15 07:45:51;;;;;;;0.10;0.10;;;;;;;-0.91;69.95;100856.69;7356042;19;20019;-58
2022/12/15 07:48:17;;;;;;;0.10;0.10;;;;;;;-0.93;69.66;100851.53;7348692;19;20042;-58
2022/12/15 07:50:42;;;;;;;0.10;0.10;;;;;;;-1.12;70.06;100816.88;7356758;19;20002;-56
2022/12/15 07:53:08;;;;;;;0.00;0.00;;;;;;;-1.09;69.71;100824.66;7358592;19;20018;-58
2022/12/15 07:55:34;;;;;;;0.10;0.10;;;;;;;-0.99;69.67;100840.28;7360602;19;20010;-58
2022/12/15 07:57:59;;;;;;;0.10;0.10;;;;;;;-0.96;70.09;100855.72;7355062;19;20014;-58
2022/12/15 08:00:26;;;;;;;0.10;0.10;;;;;;;-0.99;69.95;100851.38;7346606;19;20013;-58
2022/12/15 08:02:51;;;;;;;0.00;0.00;;;;;;;-0.97;70.13;100853.97;7362477;19;20014;-58
2022/12/15 08:05:16;;;;;;;0.10;0.10;;;;;;;-1.14;70.09;100830.47;7361734;19;20094;-58
2022/12/15 08:07:42;;;;;;;0.00;0.00;;;;;;;-0.95;69.93;100863.47;7360968;19;20006;-58
2022/12/15 08:10:08;;;;;;;0.10;0.10;;;;;;;-0.98;69.81;100863.38;7360717;19;20010;-59
2022/12/15 08:12:33;;;;;;;0.10;0.10;;;;;;;-0.94;70.32;100870.31;7359932;19;20013;-56
2022/12/15 08:14:58;;;;;;;0.10;0.10;;;;;;;-0.94;69.99;100864.31;7356193;19;20014;-56
2022/12/15 08:17:24;;;;;;;0.10;0.10;;;;;;;-0.95;70.03;100873.72;7362183;19;20042;-57
2022/12/15 08:19:49;;;;;;;0.03;0.03;;;;;;;-1.05;70.31;100853.81;7360124;19;20459;-58
2022/12/15 08:22:15;;;;;;;0.03;0.03;;;;;;;-0.95;70.28;100872.84;7357915;19;20373;-58
2022/12/15 08:24:41;;;;;;;0.10;0.10;;;;;;;-0.92;70.37;100884.03;7359439;19;20017;-58
2022/12/15 08:27:07;;;;;;;0.10;0.10;;;;;;;-0.92;69.98;100886.59;7358319;19;20035;-58
2022/12/15 08:29:33;;;;;;;0.10;0.10;;;;;;;-1.01;70.14;100872.66;7360380;19;20014;-58
2022/12/15 08:31:58;;;;;;;0.10;0.10;;;;;;;-1.10;70.12;100863.06;7361662;19;20014;-58
2022/12/15 08:34:23;;;;;;;0.00;0.00;;;;;;;-1.13;70.12;100868.94;7358492;19;20012;-58
2022/12/15 08:36:49;;;;;;;0.10;0.10;;;;;;;-0.94;70.11;100893.38;7361023;19;20081;-58
2022/12/15 08:39:15;;;;;;;0.10;0.10;;;;;;;-0.91;70.45;100890.91;7359165;19;20006;-59
2022/12/15 08:41:41;;;;;;;0.10;0.10;;;;;;;-0.90;70.02;100896.91;7358887;19;20376;-56
2022/12/15 08:44:06;;;;;;;0.10;0.10;;;;;;;-0.90;70.57;100896.91;7358177;19;20015;-56
2022/12/15 08:46:33;;;;;;;0.10;0.10;;;;;;;-0.92;70.25;100886.59;7360424;19;20042;-58
2022/12/15 08:49:00;;;;;;;0.10;0.10;;;;;;;-0.94;70.29;100879.72;7362647;19;20386;-57
2022/12/15 08:51:27;;;;;;;0.00;0.00;;;;;;;-0.91;70.33;100885.78;7359245;19;20074;-58
2022/12/15 08:53:54;;;;;;;0.10;0.10;;;;;;;-0.93;70.16;100887.44;7363601;19;20003;-57
2022/12/15 08:56:21;;;;;;;0.00;0.00;;;;;;;-0.87;70.40;100887.59;7365300;19;20006;-58
2022/12/15 08:58:48;;;;;;;0.00;0.00;;;;;;;-0.86;70.36;100894.47;7366873;19;20078;-58
2022/12/15 09:01:16;;;;;;;0.10;0.10;;;;;;;-0.87;70.56;100887.59;7367167;19;20054;-57
2022/12/15 09:03:42;;;;;;;0.00;0.00;;;;;;;-0.83;70.51;100894.53;7361845;19;20071;-58
2022/12/15 09:06:12;;;;;;;0.10;0.10;;;;;;;-1.28;70.46;100813.88;7365795;19;20018;-58
2022/12/15 09:08:38;;;;;;;0.10;0.10;;;;;;;-0.82;70.44;100906.53;7366365;19;20022;-57
2022/12/15 09:11:04;;;;;;;0.10;0.10;;;;;;;-0.77;70.29;100913.47;7366377;19;20676;-59
2022/12/15 09:13:30;;;;;;;0.10;0.10;;;;;;;-0.83;70.55;100915.06;7365901;19;20440;-58
2022/12/15 09:15:57;;;;;;;0.10;0.10;;;;;;;-0.74;70.58;100934.09;7364646;19;20915;-57
2022/12/15 09:18:23;;;;;;;0.10;0.10;;;;;;;-0.71;70.47;100934.16;7365218;19;20033;-58
2022/12/15 09:20:48;;;;;;;0.10;0.10;;;;;;;-0.82;70.42;100910.78;7366344;19;22636;-57
2022/12/15 09:23:14;;;;;;;0.00;0.00;;;;;;;-0.67;70.27;100935.97;7362259;19;20014;-56
2022/12/15 09:25:39;;;;;;;0.10;0.10;;;;;;;-0.76;70.43;100917.78;7365464;19;20010;-58
2022/12/15 09:28:05;;;;;;;0.10;0.10;;;;;;;-0.66;70.40;100930.00;7364341;19;20683;-58
2022/12/15 09:30:30;;;;;;;0.00;0.00;;;;;;;-0.69;70.45;100922.25;7358225;19;20013;-58
2022/12/15 09:32:56;;;;;;;0.10;0.10;;;;;;;-0.59;70.42;100934.47;7364465;19;20749;-56
2022/12/15 09:35:21;;;;;;;0.10;0.10;;;;;;;-0.58;70.35;100942.22;7357184;19;20056;-58
2022/12/15 09:37:46;;;;;;;0.00;0.00;;;;;;;-0.52;70.70;100942.38;7366325;19;20027;-58
2022/12/15 09:40:12;;;;;;;0.10;0.10;;;;;;;-0.54;70.69;100938.03;7366165;19;20014;-57
2022/12/15 09:42:38;;;;;;;0.10;0.10;;;;;;;-0.60;70.59;100922.50;7360742;19;20673;-57
2022/12/15 09:45:06;;;;;;;0.10;0.10;;;;;;;-0.41;70.77;100949.47;7365199;19;20011;-56
2022/12/15 09:47:50;;;;;;;0.10;0.10;;;;;;;-0.46;70.94;100931.38;7367531;19;20022;-58
2022/12/15 09:50:18;;;;;;;0.10;0.10;;;;;;;-0.39;70.98;100942.69;7362241;19;20014;-58
2022/12/15 09:52:51;;;;;;;0.10;0.10;;;;;;;-0.29;70.98;100955.78;7364567;19;20014;-58
2022/12/15 09:55:25;;;;;;;0.10;0.10;;;;;;;-0.22;70.85;100967.06;7357725;19;20014;-58
2022/12/15 09:57:59;;;;;;;0.00;0.00;;;;;;;-0.14;71.05;100964.72;7361226;19;20565;-57
2022/12/15 10:00:39;;;;;;;0.10;0.10;;;;;;;-0.05;70.68;100965.81;7361474;19;20018;-58
2022/12/15 10:03:42;;;;;;;0.10;0.10;;;;;;;-0.05;71.06;100946.94;7365867;19;20031;-57
2022/12/15 10:06:12;;;;;;;0.00;0.00;;;;;;;0.19;70.95;100968.09;7263535;19;2004291;-58
2022/12/15 10:08:45;;;;;;;0.00;0.00;;;;;;;0.29;71.27;100965.72;7362796;19;20122;-58
2022/12/15 10:11:25;;;;;;;0.00;0.00;;;;;;;0.52;71.54;100974.84;7365055;19;20010;-57
2022/12/15 10:13:51;;;;;;;0.00;0.00;;;;;;;0.75;71.08;100983.03;7364083;19;20074;-57
2022/12/15 10:16:27;;;;;;;0.00;0.00;;;;;;;1.00;71.38;100982.72;7363838;19;20026;-55
2022/12/15 10:19:22;;;;;;;0.10;0.10;;;;;;;1.29;71.11;100991.03;7365261;19;20038;-58
2022/12/15 10:21:47;;;;;;;0.10;0.10;;;;;;;1.57;71.08;100988.97;7258600;19;2004317;-58
2022/12/15 10:24:23;;;;;;;0.10;0.10;;;;;;;1.87;71.29;100983.50;7365831;19;20093;-58
2022/12/15 10:27:28;;;;;;;0.10;0.10;;;;;;;2.26;71.10;100998.75;7362892;19;20101;-58
2022/12/15 10:30:03;;;;;;;0.00;0.00;;;;;;;2.54;70.54;100983.72;7258912;19;2004339;-59
2022/12/15 10:32:46;;;;;;;0.00;0.00;;;;;;;2.85;70.06;100991.03;7360762;19;20066;-57
2022/12/15 10:35:33;;;;;;;0.10;0.10;;;;;;;3.17;70.46;100982.84;7359536;19;20078;-58
2022/12/15 10:38:02;;;;;;;0.10;0.10;;;;;;;3.27;69.91;100966.59;7360628;19;20126;-58
2022/12/15 10:40:45;;;;;;;0.00;0.00;;;;;;;3.68;70.06;100981.66;7360640;19;20012;-58
2022/12/15 10:43:34;;;;;;;0.10;0.10;;;;;;;4.00;69.45;100983.69;7361866;19;20019;-56
2022/12/15 10:46:21;;;;;;;0.00;0.00;;;;;;;4.23;69.26;100989.91;7362941;19;20031;-55
2022/12/15 10:48:52;;;;;;;0.00;0.00;;;;;;;4.46;68.63;100984.03;7360060;19;20019;-56
2022/12/15 10:51:35;;;;;;;0.10;0.10;;;;;;;4.71;68.31;100991.09;7363301;19;20038;-55
2022/12/15 10:54:12;;;;;;;0.10;0.10;;;;;;;4.87;68.32;100987.75;7360336;19;20025;-56
2022/12/15 10:57:19;;;;;;;0.00;0.00;;;;;;;5.11;68.76;100986.13;7361879;19;20010;-55
2022/12/15 10:59:44;;;;;;;0.10;0.10;;;;;;;5.09;68.47;100973.19;7258740;19;2004344;-55
2022/12/15 11:02:19;;;;;;;0.00;0.00;;;;;;;5.21;67.94;100977.53;7358105;19;20023;-56
2022/12/15 11:05:16;;;;;;;0.00;0.00;;;;;;;5.25;67.95;100975.81;7361535;19;20007;-55
2022/12/15 11:07:48;;;;;;;0.00;0.00;;;;;;;5.28;67.56;100984.47;7255484;19;2004373;-55
2022/12/15 11:10:26;;;;;;;0.00;0.00;;;;;;;5.37;67.73;100994.88;7360255;19;20367;-55
2022/12/15 11:13:09;;;;;;;0.00;0.00;;;;;;;5.53;68.37;100994.91;7362679;19;20006;-56
2022/12/15 11:15:44;;;;;;;0.08;0.08;;;;;;;5.69;67.88;100994.06;7343048;19;20014;-56
2022/12/15 11:18:46;;;;;;;0.00;0.00;;;;;;;5.92;68.79;100984.63;7360697;19;20797;-56
2022/12/15 11:21:26;;;;;;;0.10;0.10;;;;;;;6.01;68.00;100963.03;7257165;19;2004244;-55
2022/12/15 11:24:10;;;;;;;0.00;0.00;;;;;;;6.29;67.09;100974.28;7356228;19;20019;-55
2022/12/15 11:26:45;;;;;;;0.00;0.00;;;;;;;6.58;67.01;100978.53;7360113;19;20408;-55
2022/12/15 11:29:26;;;;;;;0.05;0.05;;;;;;;6.85;67.47;100970.72;7362112;19;20103;-56
2022/12/15 11:31:53;;;;;;;0.00;0.00;;;;;;;6.89;66.55;100956.81;7362740;19;20441;-56
2022/12/15 11:34:24;;;;;;;0.00;0.00;;;;;;;7.20;65.41;100972.31;7362488;19;20656;-51
2022/12/15 11:37:13;;;;;;;0.00;0.00;;;;;;;7.49;65.71;100970.41;7363611;19;20097;-55
2022/12/15 11:40:04;;;;;;;0.00;0.00;;;;;;;7.80;65.95;100965.00;7357170;19;20020;-54
2022/12/15 11:42:38;;;;;;;0.10;0.10;;;;;;;8.03;64.51;100970.03;7354953;19;20011;-56
2022/12/15 11:45:16;;;;;;;0.00;0.00;;;;;;;8.30;63.96;100962.00;7357785;19;20013;-55
2022/12/15 11:47:47;;;;;;;0.10;0.10;;;;;;;8.58;63.82;100967.84;7360649;19;20097;-55
2022/12/15 11:50:22;;;;;;;0.00;0.00;;;;;;;8.91;63.95;100970.09;7358311;19;20099;-54
2022/12/15 11:53:16;;;;;;;0.10;0.10;;;;;;;9.18;63.31;100976.72;7362348;19;20014;-55
2022/12/15 11:55:52;;;;;;;0.10;0.10;;;;;;;9.40;62.17;100962.53;7260114;19;2004110;-53
2022/12/15 11:58:20;;;;;;;0.03;0.03;;;;;;;9.71;61.70;100967.28;7362145;19;20465;-53
2022/12/15 12:01:04;;;;;;;0.00;0.00;;;;;;;10.03;63.29;100970.25;7359065;19;20017;-60
2022/12/15 12:03:36;;;;;;;0.05;0.05;;;;;;;10.28;62.05;100956.84;7358877;19;20458;-57
2022/12/15 12:06:36;;;;;;;0.10;0.10;;;;;;;10.54;62.45;100959.88;7362320;19;20014;-55
2022/12/15 12:09:26;;;;;;;0.05;0.05;;;;;;;10.80;62.52;100954.16;7260566;19;2003961;-56
2022/12/15 12:12:03;;;;;;;0.00;0.00;;;;;;;11.01;61.03;100950.25;7360682;19;20015;-56
2022/12/15 12:15:06;;;;;;;0.00;0.00;;;;;;;11.23;61.26;100957.63;7363359;19;20031;-56
2022/12/15 12:17:42;;;;;;;0.10;0.10;;;;;;;11.35;60.69;100942.56;7261415;19;2004405;-56
2022/12/15 12:20:19;;;;;;;0.10;0.10;;;;;;;11.52;60.26;100947.38;7358967;19;20014;-55
2022/12/15 12:23:04;;;;;;;;;;;;;;;11.74;63.33;100952.13;7358864;19;20835;-55
2022/12/15 12:25:38;;;;;;;0.00;0.00;;;;;;;11.79;59.09;100948.50;7361355;19;19914;-54
2022/12/15 12:28:31;;;;;;;0.00;0.00;;;;;;;11.94;60.68;100947.31;7358803;19;20038;-56
2022/12/15 12:30:59;;;;;;;0.10;0.10;;;;;;;11.96;58.46;100942.88;7260061;19;2004288;-55
2022/12/15 12:33:43;;;;;;;0.03;0.03;;;;;;;12.13;60.01;100951.19;7361144;19;20015;-56
2022/12/15 12:36:10;;;;;;;0.10;0.10;;;;;;;12.14;57.50;100945.06;7361456;19;21282;-54
2022/12/15 12:38:44;;;;;;;0.00;0.00;;;;;;;12.30;58.47;100958.59;7359948;19;20014;-55
2022/12/15 12:41:31;;;;;;;0.05;0.05;;;;;;;12.44;60.02;100955.66;7361254;19;20045;-56
2022/12/15 12:44:08;;;;;;;0.00;0.00;;;;;;;12.50;58.45;100945.00;7359793;19;20094;-55
2022/12/15 12:46:42;;;;;;;0.00;0.00;;;;;;;12.59;57.57;100950.00;7361412;19;20399;-55
2022/12/15 12:49:36;;;;;;;0.05;0.05;;;;;;;12.69;58.77;100948.00;7357206;19;20010;-55
2022/12/15 12:52:04;;;;;;;0.10;0.10;;;;;;;12.72;56.76;100946.16;7257799;19;2004350;-54
2022/12/15 12:54:33;;;;;;;0.10;0.10;;;;;;;12.82;56.54;100940.63;7359951;19;20022;-54
2022/12/15 12:56:59;;;;;;;0.10;0.10;;;;;;;12.89;55.90;100931.72;7359382;19;20013;-55
2022/12/15 12:59:27;;;;;;;0.10;0.10;;;;;;;13.04;56.81;100946.13;7361313;19;20780;-56
2022/12/15 13:02:17;;;;;;;0.10;0.10;;;;;;;13.12;55.69;100937.13;7361218;19;20044;-56
2022/12/15 13:04:49;;;;;;;0.10;0.10;;;;;;;13.22;55.93;100941.22;7360810;19;20014;-54
2022/12/15 13:07:39;;;;;;;0.10;0.10;;;;;;;13.31;57.76;100950.59;7356913;19;20021;-55
2022/12/15 13:10:07;;;;;;;0.10;0.10;;;;;;;13.31;54.92;100941.88;7359381;19;20034;-54
2022/12/15 13:12:53;;;;;;;0.10;0.10;;;;;;;13.36;56.57;100950.44;7358796;19;20018;-55
2022/12/15 13:15:34;;;;;;;0.00;0.00;;;;;;;13.44;56.80;100956.34;7359284;19;20770;-55
2022/12/15 13:18:10;;;;;;;0.10;0.10;;;;;;;13.49;55.26;100957.06;7360245;19;20050;-55
2022/12/15 13:20:37;;;;;;;0.10;0.10;;;;;;;13.52;54.57;100958.72;7360872;19;20553;-54
2022/12/15 13:23:20;;;;;;;0.10;0.10;;;;;;;13.67;56.55;100958.25;7358889;19;20021;-56
2022/12/15 13:26:00;;;;;;;0.10;0.10;;;;;;;13.73;55.94;100966.78;7359733;19;20015;-55
2022/12/15 13:28:41;;;;;;;0.10;0.10;;;;;;;13.77;54.66;100963.16;7353991;19;20011;-55
2022/12/15 13:31:16;;;;;;;0.10;0.10;;;;;;;13.81;55.13;100965.69;7358237;19;20021;-56
2022/12/15 13:33:58;;;;;;;0.10;0.10;;;;;;;13.82;55.20;100963.00;7356548;19;20013;-55
2022/12/15 13:36:35;;;;;;;0.00;0.00;;;;;;;13.77;54.69;100960.53;7362381;19;20007;-54
2022/12/15 13:39:02;;;;;;;;;;;;;;;13.80;57.81;100970.09;7365814;19;20017;-56
2022/12/15 13:41:27;;;;;;;0.00;0.00;;;;;;;13.65;53.36;100965.31;7365609;19;19930;-54
2022/12/15 13:43:54;;;;;;;0.10;0.10;;;;;;;13.57;52.59;100957.66;7365501;19;20018;-56
2022/12/15 13:46:24;;;;;;;0.00;0.00;;;;;;;13.51;53.45;100963.09;7357227;19;20387;-55
2022/12/15 13:49:09;;;;;;;0.10;0.10;;;;;;;13.45;54.46;100958.91;7359243;19;20014;-54
2022/12/15 13:51:40;;;;;;;0.10;0.10;;;;;;;13.23;52.53;100937.72;7361549;19;20094;-56
2022/12/15 13:54:22;;;;;;;0.10;0.10;;;;;;;13.31;55.40;100975.97;7362621;19;20688;-54
2022/12/15 13:57:04;;;;;;;0.00;0.00;;;;;;;13.20;53.20;100971.00;7362973;19;20011;-56
2022/12/15 13:59:32;;;;;;;0.10;0.10;;;;;;;13.10;52.54;100977.41;7363072;19;20010;-55
2022/12/15 14:01:58;;;;;;;0.08;0.08;;;;;;;12.91;52.82;100964.81;7363740;19;20055;-54
2022/12/15 14:04:25;;;;;;;0.10;0.10;;;;;;;12.73;52.65;100960.97;7363534;19;20013;-55
2022/12/15 14:07:00;;;;;;;0.00;0.00;;;;;;;12.60;55.06;100956.94;7360886;19;20049;-55